createdAt,value
2018-07-31T00:01:28.452Z,18.50
2018-07-31T03:43:28.000Z,17.20
2018-07-31T03:45:56.283Z,17.20
2018-07-31T03:48:24.500Z,17.20
2018-07-31T03:50:52.740Z,17.20
2018-07-31T03:53:20.952Z,17.20
2018-07-31T03:55:49.188Z,17.20
2018-07-31T03:58:17.491Z,17.20
2018-07-31T04:00:45.736Z,17.20
2018-07-31T04:03:13.947Z,17.20
2018-07-31T04:05:42.192Z,17.20
2018-07-31T04:08:10.415Z,17.20
2018-07-31T04:10:38.647Z,17.20
2018-07-31T04:13:06.859Z,17.30
2018-07-31T04:15:35.095Z,17.30
2018-07-31T04:18:03.312Z,17.40
2018-07-31T04:20:31.552Z,17.50
2018-07-31T04:22:59.790Z,17.60
2018-07-31T04:25:28.032Z,17.70
2018-07-31T04:27:56.274Z,17.80
2018-07-31T04:30:24.517Z,17.80
2018-07-31T04:32:52.731Z,17.90
2018-07-31T04:35:20.963Z,18.00
2018-07-31T04:37:49.185Z,18.10
2018-07-31T04:40:17.424Z,18.10
2018-07-31T04:42:45.644Z,18.20
2018-07-31T04:45:13.891Z,18.30
2018-07-31T04:47:42.104Z,18.30
2018-07-31T04:50:11.071Z,18.40
2018-07-31T04:52:39.395Z,18.40
2018-07-31T04:55:07.652Z,18.50
2018-07-31T04:57:35.868Z,18.60
2018-07-31T05:00:04.900Z,18.60
2018-07-31T05:02:33.116Z,18.70
2018-07-31T05:05:01.351Z,18.80
2018-07-31T05:07:29.580Z,18.90
2018-07-31T05:09:57.816Z,18.90
2018-07-31T05:12:26.047Z,19.00
2018-07-31T05:14:54.273Z,19.00
2018-07-31T05:17:22.515Z,19.10
2018-07-31T05:19:50.745Z,19.20
2018-07-31T05:22:18.992Z,19.30
2018-07-31T05:24:47.236Z,19.40
2018-07-31T05:27:15.474Z,19.50
2018-07-31T05:29:43.687Z,19.50
2018-07-31T05:32:11.915Z,19.60
2018-07-31T05:34:40.133Z,19.80
2018-07-31T05:37:08.363Z,19.90
2018-07-31T05:39:36.595Z,20.10
2018-07-31T05:42:04.864Z,20.20
2018-07-31T05:44:33.079Z,20.40
2018-07-31T05:47:01.328Z,20.50
2018-07-31T05:49:29.551Z,20.70
2018-07-31T05:51:57.788Z,20.90
2018-07-31T05:54:26.008Z,21.10
2018-07-31T05:56:54.251Z,21.20
2018-07-31T05:59:22.526Z,21.40
2018-07-31T06:01:50.760Z,21.60
2018-07-31T06:04:18.985Z,21.70
2018-07-31T06:06:47.225Z,21.90
2018-07-31T06:09:15.444Z,22.10
2018-07-31T06:11:43.685Z,22.30
2018-07-31T06:14:11.908Z,22.50
2018-07-31T06:16:40.137Z,22.60
2018-07-31T06:19:08.459Z,22.70
2018-07-31T06:21:36.848Z,22.90
2018-07-31T06:24:05.300Z,23.10
2018-07-31T06:26:33.541Z,23.30
2018-07-31T06:29:01.757Z,23.60
2018-07-31T06:31:30.217Z,23.90
2018-07-31T06:33:58.436Z,24.20
2018-07-31T06:36:26.680Z,24.40
2018-07-31T06:38:54.912Z,24.60
2018-07-31T06:41:23.139Z,24.80
2018-07-31T06:43:51.368Z,25.20
2018-07-31T06:46:19.595Z,25.30
2018-07-31T06:48:47.803Z,25.50
2018-07-31T06:51:16.032Z,25.80
2018-07-31T06:53:44.245Z,26.30
2018-07-31T06:56:12.475Z,26.40
2018-07-31T06:58:40.694Z,26.50
2018-07-31T07:01:08.925Z,26.50
2018-07-31T07:03:37.144Z,26.80
2018-07-31T07:06:05.404Z,27.10
2018-07-31T07:08:33.612Z,27.50
2018-07-31T07:11:01.824Z,27.80
2018-07-31T07:13:30.064Z,27.90
2018-07-31T07:15:58.276Z,28.00
2018-07-31T07:18:26.514Z,28.10
2018-07-31T07:20:54.731Z,28.20
2018-07-31T07:23:22.975Z,28.20
2018-07-31T07:25:51.181Z,28.40
2018-07-31T07:28:19.408Z,28.50
2018-07-31T07:30:47.662Z,28.90
2018-07-31T07:33:15.888Z,29.40
2018-07-31T07:35:44.107Z,29.60
2018-07-31T07:38:12.344Z,29.70
2018-07-31T07:40:40.556Z,29.80
2018-07-31T07:43:08.803Z,29.90
2018-07-31T07:45:37.027Z,30.00
2018-07-31T07:48:05.352Z,30.00
2018-07-31T07:50:33.703Z,29.90
2018-07-31T07:53:01.936Z,29.80
2018-07-31T07:55:30.153Z,29.90
2018-07-31T07:57:58.387Z,29.90
2018-07-31T08:00:26.603Z,29.90
2018-07-31T08:02:54.848Z,29.80
2018-07-31T08:05:23.060Z,29.90
2018-07-31T08:07:51.316Z,29.90
2018-07-31T08:10:19.548Z,30.00
2018-07-31T08:12:47.792Z,30.10
2018-07-31T08:15:15.997Z,30.20
2018-07-31T08:17:44.340Z,30.40
2018-07-31T08:20:12.568Z,30.40
2018-07-31T08:22:40.840Z,30.50
2018-07-31T08:25:09.081Z,30.50
2018-07-31T08:27:37.348Z,30.60
2018-07-31T08:30:05.576Z,30.70
2018-07-31T08:32:33.919Z,30.80
2018-07-31T08:35:02.135Z,30.80
2018-07-31T08:37:30.368Z,30.90
2018-07-31T08:39:58.584Z,31.00
2018-07-31T08:42:26.820Z,30.80
2018-07-31T08:44:55.033Z,30.90
2018-07-31T08:47:23.260Z,30.90
2018-07-31T08:49:51.468Z,31.10
2018-07-31T08:52:19.711Z,31.10
2018-07-31T08:54:47.920Z,31.20
2018-07-31T08:57:16.168Z,31.10
2018-07-31T08:59:44.381Z,31.20
2018-07-31T09:02:12.612Z,31.20
2018-07-31T09:04:40.846Z,31.30
2018-07-31T09:07:09.052Z,31.30
2018-07-31T09:09:37.288Z,31.40
2018-07-31T09:12:05.543Z,31.40
2018-07-31T09:14:33.779Z,31.30
2018-07-31T09:17:01.987Z,31.40
2018-07-31T09:19:30.208Z,31.50
2018-07-31T09:21:58.424Z,31.50
2018-07-31T09:24:26.751Z,31.50
2018-07-31T09:26:54.923Z,31.60
2018-07-31T09:29:23.184Z,31.60
2018-07-31T09:31:51.403Z,31.60
2018-07-31T09:34:19.627Z,31.60
2018-07-31T09:36:47.836Z,31.70
2018-07-31T09:39:16.073Z,31.80
2018-07-31T09:41:44.279Z,32.00
2018-07-31T09:44:12.515Z,32.00
2018-07-31T09:46:40.732Z,31.90
2018-07-31T09:49:08.966Z,32.00
2018-07-31T09:51:37.192Z,32.10
2018-07-31T09:54:05.419Z,32.30
2018-07-31T09:56:33.625Z,32.20
2018-07-31T09:59:01.869Z,32.20
2018-07-31T10:01:30.096Z,32.40
2018-07-31T10:03:58.338Z,32.30
2018-07-31T10:06:26.566Z,32.10
2018-07-31T10:08:54.804Z,32.20
2018-07-31T10:11:23.023Z,32.30
2018-07-31T10:13:51.256Z,32.50
2018-07-31T10:16:19.472Z,32.70
2018-07-31T10:18:47.706Z,32.80
2018-07-31T10:21:15.919Z,32.70
2018-07-31T10:23:44.167Z,32.70
2018-07-31T10:26:12.376Z,32.80
2018-07-31T10:28:40.605Z,32.60
2018-07-31T10:31:08.824Z,32.70
2018-07-31T10:33:37.067Z,32.70
2018-07-31T10:36:05.300Z,32.70
2018-07-31T10:38:33.529Z,32.70
2018-07-31T10:41:01.739Z,32.70
2018-07-31T10:43:29.968Z,32.70
2018-07-31T10:45:58.180Z,32.70
2018-07-31T10:48:26.438Z,32.70
2018-07-31T10:50:54.648Z,32.80
2018-07-31T10:53:22.856Z,32.90
2018-07-31T10:55:51.096Z,33.00
2018-07-31T10:58:19.359Z,33.00
2018-07-31T11:00:47.555Z,33.10
2018-07-31T11:03:15.777Z,33.20
2018-07-31T11:05:44.019Z,33.30
2018-07-31T11:08:12.228Z,33.30
2018-07-31T11:10:40.743Z,33.20
2018-07-31T11:13:09.010Z,33.20
2018-07-31T11:15:37.220Z,33.30
2018-07-31T11:18:05.436Z,33.30
2018-07-31T11:20:33.685Z,33.20
2018-07-31T11:23:01.900Z,33.30
2018-07-31T11:25:30.153Z,33.50
2018-07-31T11:27:58.364Z,33.40
2018-07-31T11:30:26.608Z,33.40
2018-07-31T11:32:54.832Z,33.50
2018-07-31T11:35:23.071Z,33.50
2018-07-31T11:37:51.288Z,33.60
2018-07-31T11:40:19.527Z,33.50
2018-07-31T11:42:47.792Z,33.50
2018-07-31T11:45:16.028Z,33.60
2018-07-31T11:47:44.236Z,33.60
2018-07-31T11:50:12.545Z,33.80
2018-07-31T11:52:40.724Z,33.80
2018-07-31T11:55:08.968Z,33.70
2018-07-31T11:57:37.184Z,33.80
2018-07-31T12:00:07.405Z,33.80
2018-07-31T12:02:35.622Z,33.80
2018-07-31T12:05:04.052Z,33.60
2018-07-31T12:07:32.264Z,33.70
2018-07-31T12:10:00.514Z,33.80
2018-07-31T12:14:56.743Z,33.80
2018-07-31T12:17:24.961Z,33.70
2018-07-31T12:19:53.206Z,33.80
2018-07-31T12:22:21.443Z,33.90
2018-07-31T12:24:49.704Z,33.80
2018-07-31T12:27:17.925Z,33.90
2018-07-31T12:29:46.180Z,33.90
2018-07-31T12:32:14.396Z,33.90
2018-07-31T12:34:42.631Z,33.90
2018-07-31T12:37:10.856Z,33.80
2018-07-31T12:39:39.099Z,33.90
2018-07-31T12:42:07.336Z,33.80
2018-07-31T12:44:35.593Z,33.80
2018-07-31T12:47:03.879Z,34.00
2018-07-31T12:49:32.105Z,34.00
2018-07-31T12:52:00.339Z,34.00
2018-07-31T12:54:28.555Z,34.10
2018-07-31T12:56:56.784Z,34.10
2018-07-31T12:59:24.997Z,34.10
2018-07-31T13:01:53.241Z,34.10
2018-07-31T13:04:21.465Z,34.20
2018-07-31T13:06:49.704Z,34.30
2018-07-31T13:09:17.935Z,34.20
2018-07-31T13:11:46.173Z,34.10
2018-07-31T13:14:14.448Z,34.20
2018-07-31T13:16:42.695Z,34.30
2018-07-31T13:19:10.912Z,34.20
2018-07-31T13:21:39.147Z,34.10
2018-07-31T13:24:07.387Z,34.10
2018-07-31T13:26:35.633Z,34.10
2018-07-31T13:29:03.870Z,34.30
2018-07-31T13:31:32.121Z,34.40
2018-07-31T13:34:00.352Z,34.20
2018-07-31T13:36:28.588Z,34.20
2018-07-31T13:38:56.820Z,34.20
2018-07-31T13:41:25.061Z,34.20
2018-07-31T13:43:53.463Z,34.30
2018-07-31T13:46:21.568Z,34.30
2018-07-31T13:48:49.788Z,34.20
2018-07-31T13:51:18.035Z,34.10
2018-07-31T13:53:46.262Z,34.10
2018-07-31T13:56:14.512Z,34.20
2018-07-31T13:58:42.744Z,34.30
2018-07-31T14:01:10.988Z,34.30
2018-07-31T14:03:39.217Z,34.30
2018-07-31T14:06:07.483Z,34.20
2018-07-31T14:08:35.705Z,34.30
2018-07-31T14:11:03.947Z,34.30
2018-07-31T14:13:32.172Z,34.40
2018-07-31T14:16:00.416Z,34.40
2018-07-31T14:18:28.631Z,34.40
2018-07-31T14:20:56.864Z,34.30
2018-07-31T14:23:25.108Z,34.20
2018-07-31T14:25:53.344Z,34.20
2018-07-31T14:28:21.570Z,34.20
2018-07-31T14:30:49.860Z,34.20
2018-07-31T14:33:18.055Z,34.20
2018-07-31T14:35:46.293Z,34.20
2018-07-31T14:38:14.527Z,34.20
2018-07-31T14:40:42.753Z,34.10
2018-07-31T14:43:11.068Z,34.20
2018-07-31T14:45:39.292Z,34.20
2018-07-31T14:48:07.533Z,34.10
2018-07-31T14:50:35.748Z,34.10
2018-07-31T14:53:04.004Z,34.10
2018-07-31T14:55:32.224Z,34.10
2018-07-31T14:58:00.473Z,34.10
2018-07-31T15:00:28.704Z,34.10
2018-07-31T15:02:56.956Z,34.10
2018-07-31T15:05:25.175Z,34.00
2018-07-31T15:07:53.416Z,34.00
2018-07-31T15:10:21.636Z,34.00
2018-07-31T15:12:50.700Z,34.00
2018-07-31T15:15:18.928Z,33.90
2018-07-31T15:17:47.194Z,33.90
2018-07-31T15:20:15.417Z,33.80
2018-07-31T15:22:43.670Z,34.00
2018-07-31T15:25:11.927Z,34.00
2018-07-31T15:27:40.171Z,33.90
2018-07-31T15:30:08.401Z,33.90
2018-07-31T15:32:36.677Z,33.80
2018-07-31T15:35:04.971Z,33.70
2018-07-31T15:37:33.471Z,33.70
2018-07-31T15:40:01.696Z,33.60
2018-07-31T15:42:29.940Z,33.70
2018-07-31T15:44:58.159Z,33.70
2018-07-31T15:47:26.406Z,33.70
2018-07-31T15:49:54.640Z,33.60
2018-07-31T15:52:22.894Z,33.60
2018-07-31T15:54:51.116Z,33.60
2018-07-31T15:57:19.384Z,33.50
2018-07-31T15:59:47.671Z,33.40
2018-07-31T16:02:15.893Z,33.30
2018-07-31T16:04:44.107Z,33.30
2018-07-31T16:07:12.349Z,33.30
2018-07-31T16:09:40.594Z,33.30
2018-07-31T16:12:08.836Z,33.30
2018-07-31T16:14:37.063Z,33.20
2018-07-31T16:17:05.590Z,33.20
2018-07-31T16:19:33.799Z,33.10
2018-07-31T16:22:02.044Z,33.10
2018-07-31T16:24:30.292Z,33.00
2018-07-31T16:26:58.541Z,33.00
2018-07-31T16:29:26.755Z,33.00
2018-07-31T16:31:55.026Z,32.90
2018-07-31T16:34:23.248Z,32.90
2018-07-31T16:36:51.464Z,32.80
2018-07-31T16:39:19.719Z,32.80
2018-07-31T16:41:47.940Z,32.70
2018-07-31T16:44:16.188Z,32.60
2018-07-31T16:46:44.408Z,32.60
2018-07-31T16:49:12.651Z,32.50
2018-07-31T16:51:40.899Z,32.50
2018-07-31T16:54:09.131Z,32.50
2018-07-31T16:56:37.355Z,32.40
2018-07-31T16:59:05.608Z,32.40
2018-07-31T17:01:33.832Z,32.40
2018-07-31T17:04:02.067Z,32.30
2018-07-31T17:06:30.302Z,32.20
2018-07-31T17:08:59.520Z,32.20
2018-07-31T17:11:28.197Z,32.10
2018-07-31T17:13:56.436Z,32.00
2018-07-31T17:16:24.652Z,31.90
2018-07-31T17:18:52.908Z,31.80
2018-07-31T17:21:21.124Z,31.70
2018-07-31T17:23:49.380Z,31.60
2018-07-31T17:26:17.600Z,31.40
2018-07-31T17:28:45.845Z,31.30
2018-07-31T17:31:14.076Z,31.20
2018-07-31T17:33:42.467Z,31.00
2018-07-31T17:36:10.693Z,30.90
2018-07-31T17:38:38.936Z,30.80
2018-07-31T17:41:07.208Z,30.70
2018-07-31T17:43:35.444Z,30.60
2018-07-31T17:46:03.661Z,30.50
2018-07-31T17:48:31.979Z,30.30
2018-07-31T17:51:00.207Z,30.20
2018-07-31T17:53:28.456Z,30.00
2018-07-31T17:55:56.687Z,29.90
2018-07-31T17:58:24.979Z,29.70
2018-07-31T18:00:53.242Z,29.60
2018-07-31T18:03:21.479Z,29.50
2018-07-31T18:05:49.703Z,29.40
2018-07-31T18:08:17.944Z,29.20
2018-07-31T18:10:46.147Z,29.00
2018-07-31T18:13:14.385Z,28.80
2018-07-31T18:15:42.659Z,28.70
2018-07-31T18:18:10.897Z,28.50
2018-07-31T18:20:39.116Z,28.40
2018-07-31T18:23:07.344Z,28.20
2018-07-31T18:25:35.568Z,28.10
2018-07-31T18:28:03.815Z,27.90
2018-07-31T18:30:32.052Z,27.80
2018-07-31T18:33:00.271Z,27.70
2018-07-31T18:35:28.505Z,27.50
2018-07-31T18:37:56.721Z,27.40
2018-07-31T18:40:24.951Z,27.30
2018-07-31T18:42:53.168Z,27.10
2018-07-31T18:45:21.404Z,27.00
2018-07-31T18:47:49.638Z,26.90
2018-07-31T18:50:17.875Z,26.70
2018-07-31T18:52:46.128Z,26.70
2018-07-31T18:55:14.379Z,26.50
2018-07-31T18:57:42.601Z,26.40
2018-07-31T19:00:10.845Z,26.30
2018-07-31T19:02:39.072Z,26.10
2018-07-31T19:05:07.332Z,26.00
2018-07-31T19:07:35.555Z,25.90
2018-07-31T19:10:03.809Z,25.80
2018-07-31T19:12:32.024Z,25.70
2018-07-31T19:15:00.260Z,25.60
2018-07-31T19:17:28.471Z,25.50
2018-07-31T19:19:56.704Z,25.50
2018-07-31T19:22:24.917Z,25.30
2018-07-31T19:24:53.270Z,25.20
2018-07-31T19:27:21.495Z,25.10
2018-07-31T19:29:49.776Z,25.00
2018-07-31T19:32:18.011Z,24.90
2018-07-31T19:34:46.272Z,24.80
2018-07-31T19:37:14.496Z,24.70
2018-07-31T19:39:42.740Z,24.70
2018-07-31T19:42:11.028Z,24.60
2018-07-31T19:44:39.236Z,24.60
2018-07-31T19:47:07.449Z,24.50
2018-07-31T19:49:35.684Z,24.50
2018-07-31T19:52:03.969Z,24.50
